• Join FlightAware (Why Join?)
  • Login
  • US Flag 
10:11AM EDT


 

Airport Tracker/Info


-or-


 

Live Flight TrackerFlight Track Log ✈ N583NW ✈ 01-May-2012 ✈ KATL - KMCO

Flight Track Log - Related Links

Times and Time Zones

All times are in EDT time to prevent confusion due to time zone crossing. See the N583NW flight status page for this flight to view local times or setup timezone preferences in your user account.

Time Position Orientation Groundspeed Altitude Reporting Facility
EDT Latitude Longitude Course Direction KTS MPH feet Rate Location/Type
11:04AM 33.6347 -84.4906 270° West 465 535 2,700  Level Atlanta Center
11:05AM 33.6344 -84.5753 264° West 348 400 4,800 2,580 Climbing Atlanta Center
11:06AM 33.6256 -84.6700 187° South 282 325 7,900 2,520 Climbing Atlanta Center
11:07AM 33.5589 -84.6794 142° Southeast 287 330 9,900 1,020 Climbing Atlanta Center
11:08AM 33.4861 -84.6117 142° Southeast 305 351 10,000 720 Climbing Atlanta Center
11:09AM 33.4072 -84.5389 143° Southeast 335 386 11,400 1,980 Climbing Atlanta Center
11:10AM 33.3197 -84.4614 143° Southeast 351 404 14,000 2,460 Climbing Atlanta Center
11:11AM 33.2364 -84.3864 144° Southeast 370 426 16,400 2,100 Climbing Atlanta Center
11:12AM 33.1489 -84.3092 144° Southeast 378 435 18,300 1,920 Climbing Atlanta Center
11:13AM 33.0572 -84.2297 150° Southeast 400 460 20,300 1,920 Climbing Atlanta Center
11:14AM 32.9592 -84.1625 159° South 408 470 22,200 1,740 Climbing Atlanta Center
11:15AM 32.8444 -84.1106 162° South 414 476 23,800 1,560 Climbing Atlanta Center
11:16AM 32.7275 -84.0658 160° South 432 497 25,400 1,440 Climbing Atlanta Center
11:17AM 32.6108 -84.0167 160° South 445 512 26,700 1,200 Climbing Atlanta Center
11:18AM 32.4897 -83.9650 162° South 450 518 27,900 1,200 Climbing Atlanta Center
11:19AM 32.3644 -83.9158 154° Southeast 463 533 29,100 1,020 Climbing Atlanta Center
11:20AM 32.2433 -83.8472 152° Southeast 474 545 30,000 420 Climbing Atlanta Center
11:21AM 32.1242 -83.7714 153° Southeast 479 551 30,000  Level Atlanta Center
11:22AM 31.9928 -83.6911 151° Southeast 484 557 30,000  Level Jacksonville Center
11:23AM 31.8742 -83.6142 151° Southeast 484 557 30,000  Level Jacksonville Center
11:24AM 31.7556 -83.5375 153° Southeast 484 557 30,000  Level Jacksonville Center
11:25AM 31.6350 -83.4661 152° Southeast 484 557 30,000  Level Jacksonville Center
11:26AM 31.5183 -83.3947 152° Southeast 484 557 30,000  Level Jacksonville Center
11:27AM 31.3994 -83.3208 151° Southeast 484 557 30,000 -60 Level Jacksonville Center
11:28AM 31.2850 -83.2475 154° Southeast 479 551 29,900 -600 Descending Jacksonville Center
11:29AM 31.1703 -83.1814 151° Southeast 467 537 28,900 -1,080 Descending Jacksonville Center
11:30AM 31.0597 -83.1108 152° Southeast 467 537 27,800 -960 Descending Jacksonville Center
11:31AM 30.9492 -83.0428 153° Southeast 457 526 27,000 -420 Descending Jacksonville Center
11:32AM 30.8364 -82.9772 153° Southeast 451 519 27,000  Level Jacksonville Center
11:33AM 30.7322 -82.9144 153° Southeast 457 526 27,000  Level Jacksonville Center
11:34AM 30.6153 -82.8442 150° Southeast 468 539 27,000  Level Jacksonville Center
11:35AM 30.5025 -82.7697 153° Southeast 468 539 27,000  Level Jacksonville Center
11:36AM 30.3833 -82.7000 154° Southeast 468 539 27,000  Level Jacksonville Center
11:37AM 30.2619 -82.6306 152° Southeast 474 545 27,000  Level Jacksonville Center
11:38AM 30.1450 -82.5586 152° Southeast 474 545 27,000 -420 Level Jacksonville Center
11:39AM 30.0300 -82.4894 156° South 474 545 26,200 -1,080 Descending Jacksonville Center
11:40AM 29.9211 -82.4325 163° South 454 522 24,900 -660 Descending Jacksonville Center
11:41AM 29.8061 -82.3922 163° South 435 501 25,000  Climbing Jacksonville Center
11:42AM 29.6869 -82.3500 162° South 430 495 25,000 -900 Level Jacksonville Center
11:43AM 29.5742 -82.3075 164° South 430 495 23,200 -1,980 Descending Jacksonville Center
11:44AM 29.4633 -82.2700 162° South 420 483 21,100 -2,100 Descending Jacksonville Center
11:45AM 29.3608 -82.2325 163° South 415 478 19,100 -1,920 Descending Jacksonville Center
11:46AM 29.2625 -82.1975 161° South 389 448 17,400 -1,800 Descending Jacksonville Center
11:47AM 29.1642 -82.1578 152° Southeast 379 436 15,600 -1,560 Descending Jacksonville Center
11:48AM 29.0803 -82.1061 151° Southeast 363 418 14,300 -1,260 Descending Jacksonville Center
11:49AM 28.9986 -82.0544 137° Southeast 351 404 13,100 -1,200 Descending Jacksonville Center
11:50AM 28.9314 -81.9817 136° Southeast 339 390 11,900 -1,080 Descending Jacksonville Center
11:51AM 28.8767 -81.9206 125° Southeast 309 356 11,000 -1,140 Descending Jacksonville Center
11:52AM 28.8333 -81.8500 106° East 273 314 9,900 -1,200 Descending Orlando TRACON
11:53AM 28.8167 -81.7833 103° East 275 316 9,000 -480 Descending Orlando TRACON
11:54AM 28.8000 -81.7000 103° East 272 313 9,000  Level Orlando TRACON
11:55AM 28.7833 -81.6167 106° East 242 278 9,000 -540 Level Orlando TRACON
11:56AM 28.7667 -81.5500 120° Southeast 219 252 8,000 -1,200 Descending Orlando TRACON
11:57AM 28.7333 -81.4833 111° Southeast 213 245 6,600 -1,440 Descending Orlando TRACON
11:58AM 28.7167 -81.4333 120° Southeast 211 243 5,200 -1,380 Descending Orlando TRACON
11:59AM 28.6833 -81.3667 139° Southeast 211 243 3,900 -1,140 Descending Orlando TRACON
12:00PM 28.6500 -81.3333 168° South 211 243 3,000 -600 Descending Orlando TRACON
12:01PM 28.5833 -81.3167 180° South 204 235 2,700 -720 Descending Orlando TRACON
12:02PM 28.5167 -81.3167 180° South 200 230 1,600 -960 Descending Orlando TRACON
12:03PM 28.4833 -81.3167 180° South 160 184 800 -840 Descending Orlando TRACON